sensor_id;sensor_type;location;lat;lon;timestamp;P1;durP1;ratioP1;P2;durP2;ratioP2
19535;SDS011;9913;51.168;4.124;2022-10-16T00:01:22;2.60;;;1.43;;
19535;SDS011;9913;51.168;4.124;2022-10-16T00:03:52;2.67;;;1.70;;
19535;SDS011;9913;51.168;4.124;2022-10-16T00:06:21;3.40;;;1.80;;
19535;SDS011;9913;51.168;4.124;2022-10-16T00:08:50;3.53;;;1.70;;
19535;SDS011;9913;51.168;4.124;2022-10-16T00:11:19;2.90;;;1.60;;
19535;SDS011;9913;51.168;4.124;2022-10-16T00:13:50;2.47;;;1.57;;
19535;SDS011;9913;51.168;4.124;2022-10-16T00:16:19;2.83;;;1.57;;
19535;SDS011;9913;51.168;4.124;2022-10-16T00:18:48;3.30;;;1.40;;
19535;SDS011;9913;51.168;4.124;2022-10-16T00:21:18;2.93;;;1.53;;
19535;SDS011;9913;51.168;4.124;2022-10-16T00:24:07;3.80;;;1.50;;
19535;SDS011;9913;51.168;4.124;2022-10-16T00:26:36;4.03;;;1.77;;
19535;SDS011;9913;51.168;4.124;2022-10-16T00:29:06;2.60;;;1.40;;
19535;SDS011;9913;51.168;4.124;2022-10-16T00:31:34;2.40;;;1.37;;
19535;SDS011;9913;51.168;4.124;2022-10-16T00:34:03;4.17;;;1.27;;
19535;SDS011;9913;51.168;4.124;2022-10-16T00:36:32;1.73;;;1.23;;
19535;SDS011;9913;51.168;4.124;2022-10-16T00:39:01;3.43;;;1.60;;
19535;SDS011;9913;51.168;4.124;2022-10-16T00:41:31;2.93;;;1.30;;
19535;SDS011;9913;51.168;4.124;2022-10-16T00:44:00;3.87;;;1.40;;
19535;SDS011;9913;51.168;4.124;2022-10-16T00:46:37;2.00;;;1.27;;
19535;SDS011;9913;51.168;4.124;2022-10-16T00:49:08;1.80;;;1.10;;
19535;SDS011;9913;51.168;4.124;2022-10-16T00:51:40;1.87;;;1.20;;
19535;SDS011;9913;51.168;4.124;2022-10-16T00:54:12;1.73;;;1.10;;
19535;SDS011;9913;51.168;4.124;2022-10-16T00:56:43;3.70;;;1.30;;
19535;SDS011;9913;51.168;4.124;2022-10-16T00:59:15;1.80;;;0.97;;
19535;SDS011;9913;51.168;4.124;2022-10-16T01:01:44;1.97;;;1.30;;
19535;SDS011;9913;51.168;4.124;2022-10-16T01:04:13;2.50;;;1.10;;
19535;SDS011;9913;51.168;4.124;2022-10-16T01:06:46;1.20;;;0.93;;
19535;SDS011;9913;51.168;4.124;2022-10-16T01:09:20;2.80;;;1.10;;
19535;SDS011;9913;51.168;4.124;2022-10-16T01:11:57;2.53;;;1.30;;
19535;SDS011;9913;51.168;4.124;2022-10-16T01:14:36;2.10;;;0.97;;
19535;SDS011;9913;51.168;4.124;2022-10-16T01:17:11;3.13;;;1.00;;
19535;SDS011;9913;51.168;4.124;2022-10-16T01:19:46;2.00;;;1.13;;
19535;SDS011;9913;51.168;4.124;2022-10-16T01:22:33;2.10;;;1.30;;
19535;SDS011;9913;51.168;4.124;2022-10-16T01:25:08;4.83;;;1.23;;
19535;SDS011;9913;51.168;4.124;2022-10-16T01:27:43;3.17;;;1.00;;
19535;SDS011;9913;51.168;4.124;2022-10-16T01:30:16;1.37;;;0.90;;
19535;SDS011;9913;51.168;4.124;2022-10-16T01:32:49;1.20;;;1.00;;
19535;SDS011;9913;51.168;4.124;2022-10-16T01:35:21;1.70;;;1.23;;
19535;SDS011;9913;51.168;4.124;2022-10-16T01:37:53;1.57;;;1.07;;
19535;SDS011;9913;51.168;4.124;2022-10-16T01:40:27;2.27;;;1.30;;
19535;SDS011;9913;51.168;4.124;2022-10-16T01:42:59;1.67;;;1.10;;
19535;SDS011;9913;51.168;4.124;2022-10-16T01:45:31;1.50;;;1.17;;
19535;SDS011;9913;51.168;4.124;2022-10-16T01:48:00;2.50;;;1.10;;
19535;SDS011;9913;51.168;4.124;2022-10-16T01:50:32;1.40;;;1.00;;
19535;SDS011;9913;51.168;4.124;2022-10-16T01:53:02;2.97;;;1.10;;
19535;SDS011;9913;51.168;4.124;2022-10-16T01:55:33;1.83;;;1.00;;
19535;SDS011;9913;51.168;4.124;2022-10-16T01:58:07;3.23;;;1.10;;
19535;SDS011;9913;51.168;4.124;2022-10-16T02:00:41;2.33;;;1.47;;
19535;SDS011;9913;51.168;4.124;2022-10-16T02:03:12;1.50;;;0.90;;
19535;SDS011;9913;51.168;4.124;2022-10-16T02:05:45;1.33;;;1.03;;
19535;SDS011;9913;51.168;4.124;2022-10-16T02:08:14;1.47;;;1.13;;
19535;SDS011;9913;51.168;4.124;2022-10-16T02:10:43;1.70;;;0.97;;
19535;SDS011;9913;51.168;4.124;2022-10-16T02:13:13;4.63;;;1.37;;
19535;SDS011;9913;51.168;4.124;2022-10-16T02:15:45;1.97;;;1.33;;
19535;SDS011;9913;51.168;4.124;2022-10-16T02:18:13;1.10;;;0.80;;
19535;SDS011;9913;51.168;4.124;2022-10-16T02:20:44;1.57;;;1.10;;
19535;SDS011;9913;51.168;4.124;2022-10-16T02:23:19;3.33;;;1.30;;
19535;SDS011;9913;51.168;4.124;2022-10-16T02:25:56;2.20;;;1.10;;
19535;SDS011;9913;51.168;4.124;2022-10-16T02:28:30;1.60;;;1.20;;
19535;SDS011;9913;51.168;4.124;2022-10-16T02:31:06;2.23;;;1.33;;
19535;SDS011;9913;51.168;4.124;2022-10-16T02:33:38;3.23;;;1.27;;
19535;SDS011;9913;51.168;4.124;2022-10-16T02:36:08;3.87;;;1.27;;
19535;SDS011;9913;51.168;4.124;2022-10-16T02:38:37;2.50;;;1.10;;
19535;SDS011;9913;51.168;4.124;2022-10-16T02:41:07;2.53;;;1.00;;
19535;SDS011;9913;51.168;4.124;2022-10-16T02:43:37;2.60;;;1.20;;
19535;SDS011;9913;51.168;4.124;2022-10-16T02:46:05;3.60;;;1.17;;
19535;SDS011;9913;51.168;4.124;2022-10-16T02:48:34;2.37;;;1.10;;
19535;SDS011;9913;51.168;4.124;2022-10-16T02:51:02;1.93;;;1.20;;
19535;SDS011;9913;51.168;4.124;2022-10-16T02:53:31;2.67;;;1.50;;
19535;SDS011;9913;51.168;4.124;2022-10-16T02:55:59;3.33;;;1.30;;
19535;SDS011;9913;51.168;4.124;2022-10-16T02:58:27;3.27;;;1.43;;
19535;SDS011;9913;51.168;4.124;2022-10-16T03:00:57;2.20;;;1.30;;
19535;SDS011;9913;51.168;4.124;2022-10-16T03:03:28;2.03;;;1.20;;
19535;SDS011;9913;51.168;4.124;2022-10-16T03:05:56;2.07;;;1.40;;
19535;SDS011;9913;51.168;4.124;2022-10-16T03:08:24;2.00;;;1.50;;
19535;SDS011;9913;51.168;4.124;2022-10-16T03:10:52;6.47;;;1.50;;
19535;SDS011;9913;51.168;4.124;2022-10-16T03:13:20;3.13;;;1.50;;
19535;SDS011;9913;51.168;4.124;2022-10-16T03:15:49;2.70;;;1.40;;
19535;SDS011;9913;51.168;4.124;2022-10-16T03:18:18;1.80;;;1.37;;
19535;SDS011;9913;51.168;4.124;2022-10-16T03:20:47;3.80;;;1.73;;
19535;SDS011;9913;51.168;4.124;2022-10-16T03:23:15;2.00;;;1.13;;
19535;SDS011;9913;51.168;4.124;2022-10-16T03:25:44;1.90;;;1.30;;
19535;SDS011;9913;51.168;4.124;2022-10-16T03:28:14;2.83;;;1.30;;
19535;SDS011;9913;51.168;4.124;2022-10-16T03:30:42;2.30;;;1.37;;
19535;SDS011;9913;51.168;4.124;2022-10-16T03:33:11;2.70;;;1.73;;
19535;SDS011;9913;51.168;4.124;2022-10-16T03:35:41;2.10;;;1.43;;
19535;SDS011;9913;51.168;4.124;2022-10-16T03:38:09;3.40;;;1.60;;
19535;SDS011;9913;51.168;4.124;2022-10-16T03:40:37;2.57;;;1.37;;
19535;SDS011;9913;51.168;4.124;2022-10-16T03:43:05;1.90;;;1.40;;
19535;SDS011;9913;51.168;4.124;2022-10-16T03:45:34;10.10;;;2.27;;
19535;SDS011;9913;51.168;4.124;2022-10-16T03:48:02;2.93;;;1.60;;
19535;SDS011;9913;51.168;4.124;2022-10-16T03:50:30;5.07;;;1.60;;
19535;SDS011;9913;51.168;4.124;2022-10-16T03:53:00;3.33;;;1.80;;
19535;SDS011;9913;51.168;4.124;2022-10-16T03:55:28;1.93;;;1.27;;
19535;SDS011;9913;51.168;4.124;2022-10-16T03:57:56;5.97;;;1.83;;
19535;SDS011;9913;51.168;4.124;2022-10-16T04:00:25;3.73;;;1.80;;
19535;SDS011;9913;51.168;4.124;2022-10-16T04:02:53;2.50;;;1.50;;
19535;SDS011;9913;51.168;4.124;2022-10-16T04:05:21;3.03;;;1.70;;
19535;SDS011;9913;51.168;4.124;2022-10-16T04:07:50;3.30;;;1.53;;
19535;SDS011;9913;51.168;4.124;2022-10-16T04:10:19;3.27;;;1.90;;
19535;SDS011;9913;51.168;4.124;2022-10-16T04:12:47;2.80;;;1.60;;
19535;SDS011;9913;51.168;4.124;2022-10-16T04:15:16;3.70;;;2.20;;
19535;SDS011;9913;51.168;4.124;2022-10-16T04:17:44;4.20;;;1.67;;
19535;SDS011;9913;51.168;4.124;2022-10-16T04:20:12;4.20;;;1.93;;
19535;SDS011;9913;51.168;4.124;2022-10-16T04:22:41;2.67;;;1.60;;
19535;SDS011;9913;51.168;4.124;2022-10-16T04:25:09;3.47;;;1.90;;
19535;SDS011;9913;51.168;4.124;2022-10-16T04:27:39;2.90;;;1.90;;
19535;SDS011;9913;51.168;4.124;2022-10-16T04:30:11;4.30;;;1.93;;
19535;SDS011;9913;51.168;4.124;2022-10-16T04:32:40;2.43;;;1.60;;
19535;SDS011;9913;51.168;4.124;2022-10-16T04:35:08;4.67;;;2.00;;
19535;SDS011;9913;51.168;4.124;2022-10-16T04:37:37;3.40;;;1.87;;
19535;SDS011;9913;51.168;4.124;2022-10-16T04:40:05;3.37;;;2.03;;
19535;SDS011;9913;51.168;4.124;2022-10-16T04:42:34;1.93;;;1.60;;
19535;SDS011;9913;51.168;4.124;2022-10-16T04:45:04;2.70;;;1.67;;
19535;SDS011;9913;51.168;4.124;2022-10-16T04:47:38;2.87;;;1.80;;
19535;SDS011;9913;51.168;4.124;2022-10-16T04:50:07;3.70;;;1.90;;
19535;SDS011;9913;51.168;4.124;2022-10-16T04:52:35;4.17;;;1.77;;
19535;SDS011;9913;51.168;4.124;2022-10-16T04:55:04;4.63;;;2.93;;
19535;SDS011;9913;51.168;4.124;2022-10-16T04:57:33;3.13;;;1.60;;
19535;SDS011;9913;51.168;4.124;2022-10-16T05:00:02;4.60;;;1.70;;
19535;SDS011;9913;51.168;4.124;2022-10-16T05:02:33;3.67;;;1.77;;
19535;SDS011;9913;51.168;4.124;2022-10-16T05:05:01;3.83;;;2.13;;
19535;SDS011;9913;51.168;4.124;2022-10-16T05:07:30;2.57;;;2.10;;
19535;SDS011;9913;51.168;4.124;2022-10-16T05:09:58;2.50;;;2.10;;
19535;SDS011;9913;51.168;4.124;2022-10-16T05:12:26;5.97;;;2.30;;
19535;SDS011;9913;51.168;4.124;2022-10-16T05:14:54;4.03;;;1.83;;
19535;SDS011;9913;51.168;4.124;2022-10-16T05:17:26;3.13;;;1.67;;
19535;SDS011;9913;51.168;4.124;2022-10-16T05:19:55;3.50;;;2.03;;
19535;SDS011;9913;51.168;4.124;2022-10-16T05:22:23;5.10;;;2.43;;
19535;SDS011;9913;51.168;4.124;2022-10-16T05:24:51;5.03;;;2.60;;
19535;SDS011;9913;51.168;4.124;2022-10-16T05:27:20;5.43;;;2.17;;
19535;SDS011;9913;51.168;4.124;2022-10-16T05:29:49;3.80;;;2.10;;
19535;SDS011;9913;51.168;4.124;2022-10-16T05:32:17;4.83;;;2.27;;
19535;SDS011;9913;51.168;4.124;2022-10-16T05:34:47;5.97;;;2.13;;
19535;SDS011;9913;51.168;4.124;2022-10-16T05:37:16;3.37;;;1.87;;
19535;SDS011;9913;51.168;4.124;2022-10-16T05:39:44;4.33;;;1.70;;
19535;SDS011;9913;51.168;4.124;2022-10-16T05:42:12;3.77;;;2.10;;
19535;SDS011;9913;51.168;4.124;2022-10-16T05:44:41;5.27;;;2.27;;
19535;SDS011;9913;51.168;4.124;2022-10-16T05:47:09;4.03;;;1.90;;
19535;SDS011;9913;51.168;4.124;2022-10-16T05:49:38;4.57;;;1.90;;
19535;SDS011;9913;51.168;4.124;2022-10-16T05:52:08;3.67;;;1.70;;
19535;SDS011;9913;51.168;4.124;2022-10-16T05:54:36;3.47;;;1.80;;
19535;SDS011;9913;51.168;4.124;2022-10-16T05:57:05;4.00;;;2.03;;
19535;SDS011;9913;51.168;4.124;2022-10-16T05:59:33;5.77;;;2.30;;
19535;SDS011;9913;51.168;4.124;2022-10-16T06:02:01;3.17;;;1.70;;
19535;SDS011;9913;51.168;4.124;2022-10-16T06:04:29;2.70;;;1.87;;
19535;SDS011;9913;51.168;4.124;2022-10-16T06:06:58;5.37;;;2.00;;
19535;SDS011;9913;51.168;4.124;2022-10-16T06:09:29;3.47;;;1.90;;
19535;SDS011;9913;51.168;4.124;2022-10-16T06:11:57;6.03;;;1.77;;
19535;SDS011;9913;51.168;4.124;2022-10-16T06:14:25;4.80;;;1.80;;
19535;SDS011;9913;51.168;4.124;2022-10-16T06:16:54;3.73;;;2.03;;
19535;SDS011;9913;51.168;4.124;2022-10-16T06:19:22;3.33;;;1.97;;
19535;SDS011;9913;51.168;4.124;2022-10-16T06:21:50;4.23;;;2.13;;
19535;SDS011;9913;51.168;4.124;2022-10-16T06:24:18;3.13;;;1.90;;
19535;SDS011;9913;51.168;4.124;2022-10-16T06:26:48;5.37;;;1.70;;
19535;SDS011;9913;51.168;4.124;2022-10-16T06:29:17;4.33;;;1.77;;
19535;SDS011;9913;51.168;4.124;2022-10-16T06:31:45;3.90;;;1.60;;
19535;SDS011;9913;51.168;4.124;2022-10-16T06:34:13;5.33;;;1.90;;
19535;SDS011;9913;51.168;4.124;2022-10-16T06:36:42;2.93;;;1.97;;
19535;SDS011;9913;51.168;4.124;2022-10-16T06:39:10;4.20;;;1.80;;
19535;SDS011;9913;51.168;4.124;2022-10-16T06:41:39;6.03;;;2.33;;
19535;SDS011;9913;51.168;4.124;2022-10-16T06:44:16;3.00;;;1.73;;
19535;SDS011;9913;51.168;4.124;2022-10-16T06:46:44;2.83;;;1.60;;
19535;SDS011;9913;51.168;4.124;2022-10-16T06:49:12;4.07;;;1.87;;
19535;SDS011;9913;51.168;4.124;2022-10-16T06:51:42;3.97;;;1.90;;
19535;SDS011;9913;51.168;4.124;2022-10-16T06:54:10;7.17;;;1.90;;
19535;SDS011;9913;51.168;4.124;2022-10-16T06:56:39;2.57;;;1.60;;
19535;SDS011;9913;51.168;4.124;2022-10-16T06:59:07;5.20;;;2.23;;
19535;SDS011;9913;51.168;4.124;2022-10-16T07:01:37;3.40;;;2.00;;
19535;SDS011;9913;51.168;4.124;2022-10-16T07:04:05;2.80;;;1.83;;
19535;SDS011;9913;51.168;4.124;2022-10-16T07:06:33;4.07;;;2.17;;
19535;SDS011;9913;51.168;4.124;2022-10-16T07:09:03;4.73;;;2.00;;
19535;SDS011;9913;51.168;4.124;2022-10-16T07:11:32;3.17;;;1.83;;
19535;SDS011;9913;51.168;4.124;2022-10-16T07:14:01;3.97;;;1.83;;
19535;SDS011;9913;51.168;4.124;2022-10-16T07:16:30;3.73;;;2.07;;
19535;SDS011;9913;51.168;4.124;2022-10-16T07:19:01;4.57;;;1.80;;
19535;SDS011;9913;51.168;4.124;2022-10-16T07:21:30;5.57;;;2.33;;
19535;SDS011;9913;51.168;4.124;2022-10-16T07:24:02;5.87;;;2.37;;
19535;SDS011;9913;51.168;4.124;2022-10-16T07:26:32;3.00;;;1.87;;
19535;SDS011;9913;51.168;4.124;2022-10-16T07:29:02;4.20;;;1.70;;
19535;SDS011;9913;51.168;4.124;2022-10-16T07:31:30;2.97;;;1.60;;
19535;SDS011;9913;51.168;4.124;2022-10-16T07:33:59;3.57;;;1.90;;
19535;SDS011;9913;51.168;4.124;2022-10-16T07:36:29;4.47;;;1.90;;
19535;SDS011;9913;51.168;4.124;2022-10-16T07:38:57;4.53;;;1.97;;
19535;SDS011;9913;51.168;4.124;2022-10-16T07:41:26;3.50;;;1.93;;
19535;SDS011;9913;51.168;4.124;2022-10-16T07:43:55;3.73;;;2.10;;
19535;SDS011;9913;51.168;4.124;2022-10-16T07:46:27;6.33;;;2.00;;
19535;SDS011;9913;51.168;4.124;2022-10-16T07:48:55;5.87;;;2.37;;
19535;SDS011;9913;51.168;4.124;2022-10-16T07:51:36;3.37;;;1.97;;
19535;SDS011;9913;51.168;4.124;2022-10-16T07:54:04;3.93;;;1.80;;
19535;SDS011;9913;51.168;4.124;2022-10-16T07:56:32;3.37;;;1.80;;
19535;SDS011;9913;51.168;4.124;2022-10-16T07:59:05;5.20;;;1.80;;
19535;SDS011;9913;51.168;4.124;2022-10-16T08:01:33;4.63;;;2.10;;
19535;SDS011;9913;51.168;4.124;2022-10-16T08:04:02;3.50;;;2.00;;
19535;SDS011;9913;51.168;4.124;2022-10-16T08:06:34;5.43;;;1.90;;
19535;SDS011;9913;51.168;4.124;2022-10-16T08:09:05;1.63;;;1.30;;
19535;SDS011;9913;51.168;4.124;2022-10-16T08:11:34;2.87;;;1.40;;
19535;SDS011;9913;51.168;4.124;2022-10-16T08:14:02;7.10;;;2.30;;
19535;SDS011;9913;51.168;4.124;2022-10-16T08:16:30;5.37;;;1.60;;
19535;SDS011;9913;51.168;4.124;2022-10-16T08:18:59;3.97;;;1.40;;
19535;SDS011;9913;51.168;4.124;2022-10-16T08:21:27;3.00;;;1.50;;
19535;SDS011;9913;51.168;4.124;2022-10-16T08:23:56;3.00;;;1.50;;
19535;SDS011;9913;51.168;4.124;2022-10-16T08:26:26;2.57;;;1.50;;
19535;SDS011;9913;51.168;4.124;2022-10-16T08:28:54;5.00;;;1.67;;
19535;SDS011;9913;51.168;4.124;2022-10-16T08:31:24;5.00;;;1.40;;
19535;SDS011;9913;51.168;4.124;2022-10-16T08:33:53;3.33;;;1.30;;
19535;SDS011;9913;51.168;4.124;2022-10-16T08:36:21;5.50;;;1.93;;
19535;SDS011;9913;51.168;4.124;2022-10-16T08:38:50;3.83;;;1.40;;
19535;SDS011;9913;51.168;4.124;2022-10-16T08:41:36;2.90;;;1.40;;
19535;SDS011;9913;51.168;4.124;2022-10-16T08:47:41;5.80;;;1.57;;
19535;SDS011;9913;51.168;4.124;2022-10-16T08:50:17;3.77;;;1.63;;
19535;SDS011;9913;51.168;4.124;2022-10-16T08:52:50;4.03;;;1.33;;
19535;SDS011;9913;51.168;4.124;2022-10-16T08:55:28;3.93;;;1.47;;
19535;SDS011;9913;51.168;4.124;2022-10-16T08:58:01;3.73;;;1.33;;
19535;SDS011;9913;51.168;4.124;2022-10-16T09:00:29;4.77;;;1.30;;
19535;SDS011;9913;51.168;4.124;2022-10-16T09:03:00;4.73;;;1.20;;
19535;SDS011;9913;51.168;4.124;2022-10-16T09:08:34;6.13;;;1.50;;
19535;SDS011;9913;51.168;4.124;2022-10-16T09:11:11;3.17;;;1.17;;
19535;SDS011;9913;51.168;4.124;2022-10-16T09:13:50;2.60;;;1.33;;
19535;SDS011;9913;51.168;4.124;2022-10-16T09:16:22;4.80;;;1.37;;
19535;SDS011;9913;51.168;4.124;2022-10-16T09:18:54;5.43;;;1.43;;
19535;SDS011;9913;51.168;4.124;2022-10-16T09:21:32;3.00;;;1.07;;
19535;SDS011;9913;51.168;4.124;2022-10-16T09:24:06;3.60;;;1.33;;
19535;SDS011;9913;51.168;4.124;2022-10-16T09:26:39;5.07;;;1.20;;
19535;SDS011;9913;51.168;4.124;2022-10-16T09:29:10;3.87;;;1.30;;
19535;SDS011;9913;51.168;4.124;2022-10-16T09:31:40;5.00;;;1.30;;
19535;SDS011;9913;51.168;4.124;2022-10-16T09:34:11;3.57;;;1.60;;
19535;SDS011;9913;51.168;4.124;2022-10-16T09:36:45;3.20;;;1.30;;
19535;SDS011;9913;51.168;4.124;2022-10-16T09:39:14;3.58;;;1.33;;
19535;SDS011;9913;51.168;4.124;2022-10-16T09:41:43;9.32;;;2.30;;
19535;SDS011;9913;51.168;4.124;2022-10-16T09:44:18;11.07;;;2.70;;
19535;SDS011;9913;51.168;4.124;2022-10-16T09:47:00;4.93;;;2.30;;
19535;SDS011;9913;51.168;4.124;2022-10-16T09:49:29;6.90;;;1.83;;
19535;SDS011;9913;51.168;4.124;2022-10-16T09:52:04;3.67;;;1.37;;
19535;SDS011;9913;51.168;4.124;2022-10-16T09:54:33;4.72;;;2.20;;
19535;SDS011;9913;51.168;4.124;2022-10-16T09:57:04;5.80;;;1.23;;
19535;SDS011;9913;51.168;4.124;2022-10-16T09:59:45;5.50;;;1.30;;
19535;SDS011;9913;51.168;4.124;2022-10-16T10:02:15;3.58;;;1.10;;
19535;SDS011;9913;51.168;4.124;2022-10-16T10:04:47;4.70;;;1.25;;
19535;SDS011;9913;51.168;4.124;2022-10-16T10:07:18;4.95;;;1.35;;
19535;SDS011;9913;51.168;4.124;2022-10-16T10:09:49;5.32;;;1.23;;
19535;SDS011;9913;51.168;4.124;2022-10-16T10:12:18;4.55;;;1.30;;
19535;SDS011;9913;51.168;4.124;2022-10-16T10:14:54;2.92;;;1.10;;
19535;SDS011;9913;51.168;4.124;2022-10-16T10:17:24;5.13;;;1.50;;
19535;SDS011;9913;51.168;4.124;2022-10-16T10:19:54;4.23;;;1.50;;
19535;SDS011;9913;51.168;4.124;2022-10-16T10:22:26;6.07;;;1.42;;
19535;SDS011;9913;51.168;4.124;2022-10-16T10:25:19;5.30;;;1.23;;
19535;SDS011;9913;51.168;4.124;2022-10-16T10:31:25;5.93;;;2.00;;
19535;SDS011;9913;51.168;4.124;2022-10-16T10:33:58;7.50;;;1.70;;
19535;SDS011;9913;51.168;4.124;2022-10-16T10:36:37;7.88;;;1.60;;
19535;SDS011;9913;51.168;4.124;2022-10-16T10:39:07;4.70;;;1.52;;
19535;SDS011;9913;51.168;4.124;2022-10-16T10:41:53;6.05;;;1.38;;
19535;SDS011;9913;51.168;4.124;2022-10-16T10:44:42;5.25;;;1.20;;
19535;SDS011;9913;51.168;4.124;2022-10-16T10:47:27;7.72;;;1.63;;
19535;SDS011;9913;51.168;4.124;2022-10-16T10:50:07;5.20;;;1.40;;
19535;SDS011;9913;51.168;4.124;2022-10-16T10:52:43;4.68;;;1.50;;
19535;SDS011;9913;51.168;4.124;2022-10-16T10:55:22;4.68;;;1.20;;
19535;SDS011;9913;51.168;4.124;2022-10-16T10:58:07;5.05;;;1.25;;
19535;SDS011;9913;51.168;4.124;2022-10-16T11:01:07;3.15;;;1.35;;
19535;SDS011;9913;51.168;4.124;2022-10-16T11:03:45;6.15;;;1.20;;
19535;SDS011;9913;51.168;4.124;2022-10-16T11:06:27;3.67;;;1.30;;
19535;SDS011;9913;51.168;4.124;2022-10-16T11:09:00;6.00;;;1.25;;
19535;SDS011;9913;51.168;4.124;2022-10-16T11:11:36;4.10;;;1.10;;
19535;SDS011;9913;51.168;4.124;2022-10-16T11:14:11;3.67;;;1.20;;
19535;SDS011;9913;51.168;4.124;2022-10-16T11:16:43;5.10;;;1.50;;
19535;SDS011;9913;51.168;4.124;2022-10-16T11:19:20;6.63;;;1.40;;
19535;SDS011;9913;51.168;4.124;2022-10-16T11:21:58;5.85;;;2.08;;
19535;SDS011;9913;51.168;4.124;2022-10-16T11:24:33;2.60;;;1.02;;
19535;SDS011;9913;51.168;4.124;2022-10-16T11:27:07;3.08;;;1.30;;
19535;SDS011;9913;51.168;4.124;2022-10-16T11:29:41;4.97;;;1.20;;
19535;SDS011;9913;51.168;4.124;2022-10-16T11:32:18;3.33;;;1.30;;
19535;SDS011;9913;51.168;4.124;2022-10-16T11:34:52;4.50;;;1.35;;
19535;SDS011;9913;51.168;4.124;2022-10-16T11:37:26;4.43;;;1.20;;
19535;SDS011;9913;51.168;4.124;2022-10-16T11:39:58;2.90;;;1.10;;
19535;SDS011;9913;51.168;4.124;2022-10-16T11:42:39;7.00;;;1.23;;
19535;SDS011;9913;51.168;4.124;2022-10-16T11:45:15;4.60;;;1.52;;
19535;SDS011;9913;51.168;4.124;2022-10-16T11:47:54;4.20;;;1.08;;
19535;SDS011;9913;51.168;4.124;2022-10-16T11:50:31;3.80;;;1.60;;
19535;SDS011;9913;51.168;4.124;2022-10-16T11:53:04;9.68;;;1.85;;
19535;SDS011;9913;51.168;4.124;2022-10-16T11:55:41;4.10;;;1.13;;
19535;SDS011;9913;51.168;4.124;2022-10-16T11:58:16;4.63;;;1.10;;
19535;SDS011;9913;51.168;4.124;2022-10-16T12:00:52;5.05;;;1.15;;
19535;SDS011;9913;51.168;4.124;2022-10-16T12:03:26;4.13;;;1.17;;
19535;SDS011;9913;51.168;4.124;2022-10-16T12:06:04;8.73;;;1.20;;
19535;SDS011;9913;51.168;4.124;2022-10-16T12:08:41;4.97;;;1.10;;
19535;SDS011;9913;51.168;4.124;2022-10-16T12:11:20;3.72;;;0.90;;
19535;SDS011;9913;51.168;4.124;2022-10-16T12:13:51;3.85;;;1.25;;
19535;SDS011;9913;51.168;4.124;2022-10-16T12:16:30;6.30;;;1.10;;
19535;SDS011;9913;51.168;4.124;2022-10-16T12:19:10;2.47;;;0.80;;
19535;SDS011;9913;51.168;4.124;2022-10-16T12:21:43;2.47;;;1.05;;
19535;SDS011;9913;51.168;4.124;2022-10-16T12:24:20;6.10;;;1.67;;
19535;SDS011;9913;51.168;4.124;2022-10-16T12:26:50;2.42;;;0.88;;
19535;SDS011;9913;51.168;4.124;2022-10-16T12:29:23;4.35;;;1.20;;
19535;SDS011;9913;51.168;4.124;2022-10-16T12:31:56;3.38;;;1.15;;
19535;SDS011;9913;51.168;4.124;2022-10-16T12:34:26;6.40;;;1.52;;
19535;SDS011;9913;51.168;4.124;2022-10-16T12:37:07;2.90;;;1.00;;
19535;SDS011;9913;51.168;4.124;2022-10-16T12:39:37;5.20;;;1.30;;
19535;SDS011;9913;51.168;4.124;2022-10-16T12:42:19;4.80;;;1.00;;
19535;SDS011;9913;51.168;4.124;2022-10-16T12:44:50;3.55;;;1.65;;
19535;SDS011;9913;51.168;4.124;2022-10-16T12:47:23;3.95;;;1.48;;
19535;SDS011;9913;51.168;4.124;2022-10-16T12:52:58;3.67;;;1.50;;
19535;SDS011;9913;51.168;4.124;2022-10-16T12:55:31;4.22;;;1.50;;
19535;SDS011;9913;51.168;4.124;2022-10-16T12:58:11;4.57;;;1.23;;
19535;SDS011;9913;51.168;4.124;2022-10-16T13:00:48;4.35;;;1.30;;
19535;SDS011;9913;51.168;4.124;2022-10-16T13:03:37;3.25;;;1.20;;
19535;SDS011;9913;51.168;4.124;2022-10-16T13:06:19;3.97;;;1.73;;
19535;SDS011;9913;51.168;4.124;2022-10-16T13:09:07;3.92;;;1.20;;
19535;SDS011;9913;51.168;4.124;2022-10-16T13:12:01;2.65;;;1.27;;
19535;SDS011;9913;51.168;4.124;2022-10-16T13:14:43;4.22;;;1.13;;
19535;SDS011;9913;51.168;4.124;2022-10-16T13:17:22;3.45;;;1.30;;
19535;SDS011;9913;51.168;4.124;2022-10-16T13:19:58;8.38;;;1.98;;
19535;SDS011;9913;51.168;4.124;2022-10-16T13:22:39;6.22;;;2.33;;
19535;SDS011;9913;51.168;4.124;2022-10-16T13:25:22;3.25;;;0.90;;
19535;SDS011;9913;51.168;4.124;2022-10-16T13:27:56;4.88;;;1.00;;
19535;SDS011;9913;51.168;4.124;2022-10-16T13:30:28;4.10;;;1.00;;
19535;SDS011;9913;51.168;4.124;2022-10-16T13:33:00;1.88;;;1.00;;
19535;SDS011;9913;51.168;4.124;2022-10-16T13:35:30;4.00;;;1.50;;
19535;SDS011;9913;51.168;4.124;2022-10-16T13:38:11;3.35;;;1.50;;
19535;SDS011;9913;51.168;4.124;2022-10-16T13:40:49;6.65;;;1.00;;
19535;SDS011;9913;51.168;4.124;2022-10-16T13:43:19;3.25;;;1.08;;
19535;SDS011;9913;51.168;4.124;2022-10-16T13:45:55;2.28;;;1.00;;
19535;SDS011;9913;51.168;4.124;2022-10-16T13:48:24;2.70;;;1.10;;
19535;SDS011;9913;51.168;4.124;2022-10-16T13:51:03;3.80;;;1.10;;
19535;SDS011;9913;51.168;4.124;2022-10-16T13:53:33;4.38;;;1.00;;
19535;SDS011;9913;51.168;4.124;2022-10-16T13:56:06;2.83;;;1.00;;
19535;SDS011;9913;51.168;4.124;2022-10-16T13:58:37;2.67;;;0.93;;
19535;SDS011;9913;51.168;4.124;2022-10-16T14:01:13;1.40;;;1.00;;
19535;SDS011;9913;51.168;4.124;2022-10-16T14:03:44;4.53;;;1.08;;
19535;SDS011;9913;51.168;4.124;2022-10-16T14:06:14;3.00;;;1.30;;
19535;SDS011;9913;51.168;4.124;2022-10-16T14:08:44;4.88;;;2.17;;
19535;SDS011;9913;51.168;4.124;2022-10-16T14:11:21;3.38;;;1.70;;
19535;SDS011;9913;51.168;4.124;2022-10-16T14:13:51;3.40;;;0.98;;
19535;SDS011;9913;51.168;4.124;2022-10-16T14:16:21;1.63;;;0.73;;
19535;SDS011;9913;51.168;4.124;2022-10-16T14:18:54;1.45;;;0.80;;
19535;SDS011;9913;51.168;4.124;2022-10-16T14:21:25;1.63;;;0.80;;
19535;SDS011;9913;51.168;4.124;2022-10-16T14:23:56;1.58;;;0.70;;
19535;SDS011;9913;51.168;4.124;2022-10-16T14:26:27;2.08;;;0.70;;
19535;SDS011;9913;51.168;4.124;2022-10-16T14:29:03;2.50;;;0.70;;
19535;SDS011;9913;51.168;4.124;2022-10-16T14:31:38;1.85;;;0.77;;
19535;SDS011;9913;51.168;4.124;2022-10-16T14:36:52;3.83;;;0.70;;
19535;SDS011;9913;51.168;4.124;2022-10-16T14:39:20;2.47;;;1.00;;
19535;SDS011;9913;51.168;4.124;2022-10-16T14:41:52;1.40;;;0.63;;
19535;SDS011;9913;51.168;4.124;2022-10-16T14:44:26;2.05;;;1.13;;
19535;SDS011;9913;51.168;4.124;2022-10-16T14:46:57;2.08;;;0.88;;
19535;SDS011;9913;51.168;4.124;2022-10-16T14:49:26;4.85;;;0.98;;
19535;SDS011;9913;51.168;4.124;2022-10-16T14:51:54;5.10;;;1.20;;
19535;SDS011;9913;51.168;4.124;2022-10-16T14:54:23;1.13;;;0.80;;
19535;SDS011;9913;51.168;4.124;2022-10-16T14:56:55;4.05;;;1.23;;
19535;SDS011;9913;51.168;4.124;2022-10-16T14:59:26;1.58;;;0.80;;
19535;SDS011;9913;51.168;4.124;2022-10-16T15:01:57;2.17;;;0.90;;
19535;SDS011;9913;51.168;4.124;2022-10-16T15:04:26;2.75;;;0.80;;
19535;SDS011;9913;51.168;4.124;2022-10-16T15:06:57;1.20;;;0.75;;
19535;SDS011;9913;51.168;4.124;2022-10-16T15:09:25;0.85;;;0.70;;
19535;SDS011;9913;51.168;4.124;2022-10-16T15:11:54;2.53;;;1.00;;
19535;SDS011;9913;51.168;4.124;2022-10-16T15:14:23;6.03;;;0.93;;
19535;SDS011;9913;51.168;4.124;2022-10-16T15:16:51;3.17;;;1.10;;
19535;SDS011;9913;51.168;4.124;2022-10-16T15:19:20;1.60;;;0.98;;
19535;SDS011;9913;51.168;4.124;2022-10-16T15:21:51;3.97;;;0.85;;
19535;SDS011;9913;51.168;4.124;2022-10-16T15:24:19;3.45;;;1.10;;
19535;SDS011;9913;51.168;4.124;2022-10-16T15:26:48;1.92;;;1.17;;
19535;SDS011;9913;51.168;4.124;2022-10-16T15:29:18;2.17;;;1.10;;
19535;SDS011;9913;51.168;4.124;2022-10-16T15:31:46;1.38;;;1.00;;
19535;SDS011;9913;51.168;4.124;2022-10-16T15:34:14;5.60;;;1.50;;
19535;SDS011;9913;51.168;4.124;2022-10-16T15:36:44;6.57;;;1.40;;
19535;SDS011;9913;51.168;4.124;2022-10-16T15:39:15;2.08;;;1.27;;
19535;SDS011;9913;51.168;4.124;2022-10-16T15:41:44;1.85;;;1.15;;
19535;SDS011;9913;51.168;4.124;2022-10-16T15:44:18;3.78;;;1.30;;